Time;durP1;ratioP1;P1;durP2;ratioP2;P2;SDS_P1;SDS_P2;PMS_P1;PMS_P2;Temp;Humidity;BMP_temperature;BMP_pressure;BME280_temperature;BME280_humidity;BME280_pressure;Samples;Min_cycle;Max_cycle;Signal;HPM_P1;HPM_P2
2023/09/01 00:03:34;;;;;;;6.70;4.68;;;;;;;;;;10231215;28;20457;-73
2023/09/01 00:08:31;;;;;;;9.52;4.82;;;;;;;;;;10229385;28;20045;-72
2023/09/01 00:13:27;;;;;;;6.20;4.85;;;;;;;;;;10235841;28;20059;-72
2023/09/01 00:18:24;;;;;;;11.02;5.00;;;;;;;;;;10232482;28;20049;-72
2023/09/01 00:23:20;;;;;;;8.32;4.85;;;;;;;;;;10216324;28;20517;-70
2023/09/01 00:28:17;;;;;;;9.05;5.35;;;;;;;;;;10224021;28;20103;-71
2023/09/01 00:33:13;;;;;;;7.05;5.00;;;;;;;;;;10201591;28;20567;-70
2023/09/01 00:38:10;;;;;;;6.25;4.50;;;;;;;;;;10223043;28;20056;-70
2023/09/01 00:43:06;;;;;;;5.53;4.95;;;;;;;;;;10215921;28;20883;-71
2023/09/01 00:48:10;;;;;;;5.70;4.90;;;;;;;;;;10244038;23;20042;-71
2023/09/01 00:53:06;;;;;;;5.88;4.60;;;;;;;;;;10216502;28;20053;-72
2023/09/01 00:58:03;;;;;;;11.20;5.20;;;;;;;;;;10226111;28;20042;-71
2023/09/01 01:03:00;;;;;;;8.15;4.95;;;;;;;;;;10187301;28;20052;-70
2023/09/01 01:08:05;;;;;;;6.15;4.30;;;;;;;;;;10187019;28;20417;-68
2023/09/01 01:13:05;;;;;;;8.93;5.00;;;;;;;;;;10188747;28;20049;-70
2023/09/01 01:18:04;;;;;;;6.28;5.05;;;;;;;;;;10186179;28;20046;-71
2023/09/01 01:23:09;;;;;;;5.30;4.80;;;;;;;;;;10187505;28;20053;-70
2023/09/01 01:28:07;;;;;;;8.23;5.10;;;;;;;;;;10185960;28;20109;-70
2023/09/01 01:33:03;;;;;;;7.80;5.05;;;;;;;;;;10182912;28;20065;-70
2023/09/01 01:38:21;;;;;;;5.95;4.80;;;;;;;;;;10185609;28;20133;-70
2023/09/01 01:43:18;;;;;;;6.20;5.00;;;;;;;;;;10178674;28;20089;-72
2023/09/01 01:48:15;;;;;;;6.70;5.03;;;;;;;;;;10185802;28;20147;-72
2023/09/01 01:53:13;;;;;;;5.97;5.05;;;;;;;;;;10186355;28;20136;-71
2023/09/01 01:58:09;;;;;;;9.68;4.55;;;;;;;;;;10186333;28;20056;-71
2023/09/01 02:03:05;;;;;;;7.20;5.03;;;;;;;;;;10185217;28;20062;-72
2023/09/01 02:08:03;;;;;;;7.85;5.50;;;;;;;;;;10177547;28;20527;-70
2023/09/01 02:13:00;;;;;;;9.18;5.28;;;;;;;;;;10184588;28;20085;-71
2023/09/01 02:17:57;;;;;;;5.32;4.55;;;;;;;;;;10194246;28;20552;-70
2023/09/01 02:22:54;;;;;;;7.80;5.40;;;;;;;;;;10178503;28;20056;-71
2023/09/01 02:27:51;;;;;;;11.52;5.38;;;;;;;;;;10192708;28;20062;-70
2023/09/01 02:32:47;;;;;;;5.88;5.22;;;;;;;;;;10195268;28;20057;-70
2023/09/01 02:37:43;;;;;;;6.95;5.28;;;;;;;;;;10192083;28;20418;-70
2023/09/01 02:42:40;;;;;;;7.70;6.00;;;;;;;;;;10197164;28;20046;-72
2023/09/01 02:47:37;;;;;;;7.05;5.80;;;;;;;;;;10191683;28;20062;-71
2023/09/01 02:52:33;;;;;;;7.60;5.60;;;;;;;;;;10195926;28;20510;-70
2023/09/01 02:57:29;;;;;;;8.85;5.13;;;;;;;;;;10196349;28;20057;-70
2023/09/01 03:02:26;;;;;;;9.70;5.90;;;;;;;;;;10200838;28;20531;-70
2023/09/01 03:07:24;;;;;;;7.70;5.72;;;;;;;;;;10192940;28;20053;-70
2023/09/01 03:12:20;;;;;;;8.98;5.85;;;;;;;;;;10193754;28;20086;-70
2023/09/01 03:17:17;;;;;;;10.90;6.85;;;;;;;;;;10194327;28;20061;-70
2023/09/01 03:22:13;;;;;;;7.93;5.80;;;;;;;;;;10192810;28;20105;-71
2023/09/01 03:27:09;;;;;;;6.88;6.18;;;;;;;;;;10191642;28;20046;-71
2023/09/01 03:32:05;;;;;;;10.48;6.32;;;;;;;;;;10190804;28;20042;-71
2023/09/01 03:37:02;;;;;;;10.10;6.93;;;;;;;;;;10191500;28;20100;-71
2023/09/01 03:41:58;;;;;;;9.70;7.13;;;;;;;;;;10191752;28;20050;-71
2023/09/01 03:46:55;;;;;;;7.65;6.38;;;;;;;;;;10191635;28;20159;-71
2023/09/01 03:51:51;;;;;;;6.85;6.13;;;;;;;;;;10189440;28;20069;-70
2023/09/01 03:56:48;;;;;;;6.95;6.25;;;;;;;;;;10187995;28;20717;-71
2023/09/01 04:01:44;;;;;;;8.23;6.95;;;;;;;;;;10191899;28;20413;-72
2023/09/01 04:06:41;;;;;;;10.57;6.78;;;;;;;;;;10184327;28;20057;-73
2023/09/01 04:11:37;;;;;;;7.72;6.60;;;;;;;;;;10190347;28;20092;-70
2023/09/01 04:16:33;;;;;;;8.18;6.70;;;;;;;;;;10187793;28;20797;-69
2023/09/01 04:21:30;;;;;;;9.55;6.72;;;;;;;;;;10189240;28;20799;-69
2023/09/01 04:26:26;;;;;;;8.60;6.60;;;;;;;;;;10191461;28;20072;-69
2023/09/01 04:31:29;;;;;;;8.93;6.93;;;;;;;;;;10187882;28;20050;-70
2023/09/01 04:36:26;;;;;;;10.52;7.68;;;;;;;;;;10184789;28;20046;-74
2023/09/01 04:47:51;;;;;;;9.88;7.60;;;;;;;;;;10170600;28;20041;-72
2023/09/01 04:52:48;;;;;;;14.90;7.50;;;;;;;;;;10266057;28;20103;-72
2023/09/01 04:57:45;;;;;;;8.27;7.03;;;;;;;;;;10254631;28;20049;-72
2023/09/01 05:02:42;;;;;;;10.48;7.43;;;;;;;;;;10249998;28;20834;-71
2023/09/01 05:07:39;;;;;;;10.65;7.93;;;;;;;;;;10255890;28;20074;-72
2023/09/01 05:12:35;;;;;;;9.23;7.00;;;;;;;;;;10250130;28;20049;-72
2023/09/01 05:17:32;;;;;;;7.90;7.10;;;;;;;;;;10261384;28;20052;-72
2023/09/01 05:22:28;;;;;;;9.60;6.68;;;;;;;;;;10228632;28;20439;-72
2023/09/01 05:27:25;;;;;;;10.38;7.20;;;;;;;;;;10264910;28;20507;-73
2023/09/01 05:32:22;;;;;;;9.43;7.28;;;;;;;;;;10263953;28;20059;-72
2023/09/01 05:37:19;;;;;;;10.60;7.75;;;;;;;;;;10258885;28;20073;-73
2023/09/01 05:42:15;;;;;;;11.50;7.05;;;;;;;;;;10263764;28;20064;-72
2023/09/01 05:47:11;;;;;;;7.68;6.20;;;;;;;;;;10255665;28;20520;-73
2023/09/01 05:52:07;;;;;;;14.50;7.28;;;;;;;;;;10227655;28;20544;-73
2023/09/01 05:57:04;;;;;;;9.68;6.90;;;;;;;;;;10250208;28;20049;-73
2023/09/01 06:02:00;;;;;;;9.43;7.22;;;;;;;;;;10252212;28;20413;-72
2023/09/01 06:06:56;;;;;;;7.97;5.93;;;;;;;;;;10251348;28;20099;-72
2023/09/01 06:11:53;;;;;;;7.55;6.25;;;;;;;;;;10255272;28;20076;-72
2023/09/01 06:16:50;;;;;;;7.40;5.68;;;;;;;;;;10255661;28;20050;-72
2023/09/01 06:21:47;;;;;;;6.43;5.78;;;;;;;;;;10253446;28;20389;-73
2023/09/01 06:26:43;;;;;;;8.32;5.95;;;;;;;;;;10257030;28;20118;-72
2023/09/01 06:31:40;;;;;;;9.30;6.03;;;;;;;;;;10253515;28;20049;-73
2023/09/01 06:36:36;;;;;;;7.70;5.55;;;;;;;;;;10262274;28;20513;-73
2023/09/01 06:41:33;;;;;;;9.90;5.35;;;;;;;;;;10258523;28;20053;-73
2023/09/01 06:46:29;;;;;;;9.00;5.70;;;;;;;;;;10257616;28;20061;-73
2023/09/01 06:51:26;;;;;;;8.90;6.07;;;;;;;;;;10248321;28;20103;-73
2023/09/01 06:56:22;;;;;;;8.23;5.88;;;;;;;;;;10265723;28;20049;-73
2023/09/01 07:01:18;;;;;;;10.45;5.50;;;;;;;;;;10254935;28;20100;-73
2023/09/01 07:06:15;;;;;;;11.15;6.20;;;;;;;;;;10249255;28;20110;-72
2023/09/01 07:11:14;;;;;;;8.73;5.82;;;;;;;;;;10264481;28;20049;-73
2023/09/01 07:16:10;;;;;;;8.95;5.60;;;;;;;;;;10268545;28;20052;-73
2023/09/01 07:21:06;;;;;;;5.70;5.10;;;;;;;;;;10282765;22;20072;-73
2023/09/01 07:26:03;;;;;;;8.40;6.10;;;;;;;;;;10216422;28;20052;-72
2023/09/01 07:31:00;;;;;;;9.05;5.65;;;;;;;;;;10222971;28;20052;-72
2023/09/01 07:35:56;;;;;;;7.70;5.60;;;;;;;;;;10231796;28;20562;-72
2023/09/01 07:40:53;;;;;;;6.63;4.93;;;;;;;;;;10222165;28;20049;-72
2023/09/01 07:45:49;;;;;;;8.00;5.22;;;;;;;;;;10224736;28;20057;-73
2023/09/01 07:50:46;;;;;;;5.55;4.95;;;;;;;;;;10224639;28;20049;-73
2023/09/01 07:55:42;;;;;;;8.02;5.30;;;;;;;;;;10221752;28;20485;-72
2023/09/01 08:00:40;;;;;;;6.22;4.93;;;;;;;;;;10230121;28;20090;-73
2023/09/01 08:05:37;;;;;;;6.13;5.30;;;;;;;;;;10216957;28;20095;-73
2023/09/01 08:10:33;;;;;;;6.60;5.55;;;;;;;;;;10225559;28;20049;-73
2023/09/01 08:15:30;;;;;;;7.82;4.85;;;;;;;;;;10230220;28;20076;-73
2023/09/01 08:20:26;;;;;;;7.05;5.05;;;;;;;;;;10220179;28;20540;-73
2023/09/01 08:25:22;;;;;;;8.10;5.30;;;;;;;;;;10229794;28;20057;-73
2023/09/01 08:30:19;;;;;;;5.90;5.30;;;;;;;;;;10222512;28;20046;-73
2023/09/01 08:35:15;;;;;;;7.43;5.50;;;;;;;;;;10227676;28;20057;-72
2023/09/01 08:40:48;;;;;;;;;;;;;;;;;;;;;
2023/09/01 08:46:39;;;;;;;11.13;5.28;;;;;;;;;;10310428;28;20036;-73
2023/09/01 08:58:40;;;;;;;;;;;;;;;;;;;;;
2023/09/01 09:04:04;;;;;;;7.32;5.00;;;;;;;;;;10081831;28;20096;-73
2023/09/01 09:15:14;;;;;;;8.18;5.20;;;;;;;;;;9968850;29;20052;-72
2023/09/01 09:20:12;;;;;;;5.18;4.53;;;;;;;;;;10057171;28;20722;-72
2023/09/01 09:25:23;;;;;;;6.15;4.97;;;;;;;;;;10057231;28;20111;-73
2023/09/01 09:30:19;;;;;;;9.43;4.38;;;;;;;;;;10056172;28;20102;-72
2023/09/01 09:35:19;;;;;;;6.72;5.00;;;;;;;;;;10065045;28;20051;-72
2023/09/01 09:40:16;;;;;;;5.57;5.03;;;;;;;;;;10064063;28;20618;-72
2023/09/01 09:45:26;;;;;;;10.18;5.28;;;;;;;;;;10193446;28;20517;-73
2023/09/01 09:50:24;;;;;;;6.18;5.20;;;;;;;;;;10339212;22;20048;-73
2023/09/01 09:55:30;;;;;;;8.40;5.28;;;;;;;;;;10260469;28;20559;-74
2023/09/01 10:00:28;;;;;;;8.80;5.20;;;;;;;;;;10231742;28;20045;-73
2023/09/01 10:05:24;;;;;;;8.57;5.10;;;;;;;;;;10260157;28;20045;-73
2023/09/01 10:10:21;;;;;;;6.22;5.10;;;;;;;;;;10251570;28;20064;-73
2023/09/01 10:15:17;;;;;;;6.90;4.60;;;;;;;;;;10244834;28;20123;-73
2023/09/01 10:25:26;;;;;;;6.32;5.20;;;;;;;;;;9932505;26;20057;-73
2023/09/01 10:30:24;;;;;;;6.10;5.15;;;;;;;;;;10205441;28;20049;-73
2023/09/01 10:35:40;;;;;;;5.70;5.20;;;;;;;;;;10189390;28;20185;-73
2023/09/01 10:40:47;;;;;;;5.95;5.20;;;;;;;;;;10165991;28;20520;-72
2023/09/01 10:46:04;;;;;;;8.80;6.72;;;;;;;;;;10185226;28;20050;-73
2023/09/01 10:51:26;;;;;;;5.57;5.07;;;;;;;;;;10176189;28;20058;-72
2023/09/01 10:56:23;;;;;;;5.28;4.85;;;;;;;;;;10179095;28;20058;-72
2023/09/01 11:01:26;;;;;;;7.30;5.05;;;;;;;;;;10180841;28;20053;-73
2023/09/01 11:06:22;;;;;;;7.03;5.20;;;;;;;;;;10175822;28;20402;-72
2023/09/01 11:16:30;;;;;;;6.80;5.15;;;;;;;;;;4530506;26;20049;-73
2023/09/01 11:21:26;;;;;;;7.57;5.40;;;;;;;;;;10211401;28;20054;-73
2023/09/01 11:26:24;;;;;;;6.88;5.63;;;;;;;;;;10220114;28;20088;-72
2023/09/01 11:37:40;;;;;;;6.93;5.65;;;;;;;;;;10205177;28;20132;-72
2023/09/01 11:42:38;;;;;;;8.85;5.72;;;;;;;;;;10307059;23;20433;-72
2023/09/01 11:47:34;;;;;;;7.38;6.15;;;;;;;;;;10241513;28;20460;-74
2023/09/01 11:52:31;;;;;;;8.30;5.30;;;;;;;;;;10266103;28;20108;-73
2023/09/01 11:57:27;;;;;;;9.23;5.35;;;;;;;;;;10249031;28;20101;-73
2023/09/01 12:13:23;;;;;;;6.53;5.18;;;;;;;;;;10257414;23;20057;-73
2023/09/01 12:18:26;;;;;;;7.95;5.18;;;;;;;;;;10260617;28;20444;-73
2023/09/01 12:23:27;;;;;;;8.63;5.30;;;;;;;;;;10235178;28;20049;-73
2023/09/01 12:33:55;;;;;;;6.83;5.27;;;;;;;;;;2603946;26;20049;-73
2023/09/01 12:38:52;;;;;;;5.90;5.40;;;;;;;;;;10147208;28;20547;-73
2023/09/01 12:43:48;;;;;;;5.68;5.18;;;;;;;;;;10182283;28;20061;-73
2023/09/01 12:48:44;;;;;;;6.13;5.13;;;;;;;;;;10235357;23;20583;-73
2023/09/01 12:53:41;;;;;;;6.38;5.03;;;;;;;;;;10279074;28;20570;-73
2023/09/01 12:58:37;;;;;;;6.18;4.72;;;;;;;;;;10251332;28;20046;-73
2023/09/01 13:03:33;;;;;;;6.18;4.72;;;;;;;;;;10241716;28;20041;-73
2023/09/01 13:08:31;;;;;;;6.80;4.93;;;;;;;;;;10252642;28;20053;-73
2023/09/01 13:13:27;;;;;;;5.18;4.68;;;;;;;;;;10258931;28;20054;-73
2023/09/01 13:18:24;;;;;;;7.80;5.00;;;;;;;;;;10261131;28;20040;-74
2023/09/01 13:23:20;;;;;;;8.60;5.10;;;;;;;;;;10255642;28;20087;-73
2023/09/01 13:28:17;;;;;;;7.15;5.35;;;;;;;;;;10254051;28;20057;-73
2023/09/01 13:33:16;;;;;;;5.43;4.68;;;;;;;;;;10250192;28;20508;-74
2023/09/01 13:38:16;;;;;;;5.10;4.10;;;;;;;;;;10244903;28;20402;-73
2023/09/01 13:43:12;;;;;;;6.30;4.82;;;;;;;;;;10263713;28;20179;-73
2023/09/01 13:48:09;;;;;;;5.30;4.45;;;;;;;;;;10253273;28;20055;-72
2023/09/01 13:53:05;;;;;;;5.35;4.13;;;;;;;;;;10254783;28;20560;-71
2023/09/01 13:58:02;;;;;;;5.38;4.07;;;;;;;;;;10265624;28;20103;-73
2023/09/01 14:02:58;;;;;;;4.50;4.10;;;;;;;;;;10266840;28;20432;-73
2023/09/01 14:07:54;;;;;;;4.70;4.20;;;;;;;;;;10268586;28;20479;-73
2023/09/01 14:12:51;;;;;;;3.85;3.45;;;;;;;;;;10266275;28;20493;-72
2023/09/01 14:17:47;;;;;;;4.15;3.75;;;;;;;;;;10273641;28;20064;-72
2023/09/01 14:22:43;;;;;;;9.27;4.25;;;;;;;;;;10281020;28;20049;-73
2023/09/01 14:27:40;;;;;;;4.93;3.67;;;;;;;;;;10281708;28;20181;-73
2023/09/01 14:32:36;;;;;;;6.28;4.00;;;;;;;;;;10273664;28;20398;-72
2023/09/01 14:37:32;;;;;;;5.28;3.55;;;;;;;;;;10274611;28;20107;-72
2023/09/01 14:42:29;;;;;;;4.10;3.70;;;;;;;;;;10272447;28;20045;-72
2023/09/01 14:47:25;;;;;;;4.03;3.63;;;;;;;;;;10282106;28;20044;-72
2023/09/01 14:52:21;;;;;;;4.22;3.72;;;;;;;;;;10263483;28;20463;-72
2023/09/01 14:57:18;;;;;;;5.78;3.97;;;;;;;;;;10281267;28;20072;-72
2023/09/01 15:02:14;;;;;;;5.45;3.83;;;;;;;;;;10278423;28;20163;-72
2023/09/01 15:07:11;;;;;;;5.85;3.58;;;;;;;;;;10266287;28;20510;-72
2023/09/01 15:12:07;;;;;;;6.30;3.40;;;;;;;;;;10272410;28;20071;-72
2023/09/01 15:17:04;;;;;;;4.97;3.70;;;;;;;;;;10266108;28;20756;-72
2023/09/01 15:22:01;;;;;;;5.35;3.88;;;;;;;;;;10261318;28;20049;-72
2023/09/01 15:26:57;;;;;;;5.35;4.70;;;;;;;;;;10264992;28;20069;-71
2023/09/01 15:32:06;;;;;;;5.47;4.97;;;;;;;;;;10203694;23;20043;-71
2023/09/01 15:37:47;;;;;;;;;;;;;;;;;;;;;
2023/09/01 15:49:32;;;;;;;5.07;4.30;;;;;;;;;;10140378;28;20054;-71
2023/09/01 15:55:34;;;;;;;4.72;4.32;;;;;;;;;;10118449;28;20062;-72
2023/09/01 16:01:06;;;;;;;4.40;4.00;;;;;;;;;;10192664;23;20426;-71
2023/09/01 16:06:44;;;;;;;6.28;4.28;;;;;;;;;;10243154;28;20064;-72
2023/09/01 16:17:26;;;;;;;5.22;4.72;;;;;;;;;;10270839;28;19929;-72
2023/09/01 16:22:23;;;;;;;4.40;3.92;;;;;;;;;;10261186;28;20052;-72
2023/09/01 16:27:19;;;;;;;4.70;4.25;;;;;;;;;;10247648;28;20047;-72
2023/09/01 16:32:16;;;;;;;4.90;4.40;;;;;;;;;;10267992;28;20045;-71
2023/09/01 16:37:12;;;;;;;5.82;4.80;;;;;;;;;;10256970;28;20110;-72
2023/09/01 16:42:08;;;;;;;6.00;4.57;;;;;;;;;;10255392;28;20072;-72
2023/09/01 16:47:05;;;;;;;4.72;4.32;;;;;;;;;;10254760;28;20057;-71
2023/09/01 16:52:01;;;;;;;5.32;4.03;;;;;;;;;;10255262;28;20395;-72
2023/09/01 16:56:59;;;;;;;6.78;4.72;;;;;;;;;;10255410;28;20050;-72
2023/09/01 17:01:56;;;;;;;4.95;4.45;;;;;;;;;;10250415;28;20048;-72
2023/09/01 17:06:52;;;;;;;5.90;4.88;;;;;;;;;;10252381;28;20041;-72
2023/09/01 17:11:50;;;;;;;6.60;5.65;;;;;;;;;;10255362;28;20086;-72
2023/09/01 17:16:46;;;;;;;5.70;4.82;;;;;;;;;;10249625;28;20103;-72
2023/09/01 17:21:42;;;;;;;4.60;4.20;;;;;;;;;;10254448;28;20081;-72
2023/09/01 17:26:39;;;;;;;4.82;4.32;;;;;;;;;;10264767;28;20098;-72
2023/09/01 17:31:35;;;;;;;4.78;4.28;;;;;;;;;;10331807;22;20555;-72
2023/09/01 17:36:31;;;;;;;5.07;4.57;;;;;;;;;;10297103;28;20061;-72
2023/09/01 17:41:37;;;;;;;6.90;4.50;;;;;;;;;;10575842;22;20565;-72
2023/09/01 17:46:34;;;;;;;5.13;4.30;;;;;;;;;;10303065;28;20931;-73
2023/09/01 17:51:30;;;;;;;8.52;4.72;;;;;;;;;;10326322;28;20496;-72
2023/09/01 17:56:27;;;;;;;5.57;4.70;;;;;;;;;;10343164;28;20136;-71
2023/09/01 18:01:24;;;;;;;5.43;4.10;;;;;;;;;;10336299;28;20083;-70
2023/09/01 18:06:21;;;;;;;5.30;4.75;;;;;;;;;;10313873;28;20742;-71
2023/09/01 18:11:17;;;;;;;5.00;4.47;;;;;;;;;;10323196;28;20069;-71
2023/09/01 18:16:16;;;;;;;5.40;4.90;;;;;;;;;;10328513;28;20063;-70
2023/09/01 18:21:13;;;;;;;5.50;4.93;;;;;;;;;;10403840;22;20037;-71
2023/09/01 18:26:10;;;;;;;5.75;5.13;;;;;;;;;;10217640;28;20087;-72
2023/09/01 18:31:07;;;;;;;5.13;4.70;;;;;;;;;;10213106;28;20663;-71
2023/09/01 18:36:04;;;;;;;5.93;5.32;;;;;;;;;;10207636;28;20050;-71
2023/09/01 18:41:01;;;;;;;6.55;4.93;;;;;;;;;;10229466;22;20714;-71
2023/09/01 18:45:58;;;;;;;7.93;5.38;;;;;;;;;;10213259;28;20045;-71
2023/09/01 18:50:59;;;;;;;7.10;5.43;;;;;;;;;;10206712;28;20132;-72
2023/09/01 18:56:01;;;;;;;11.45;6.55;;;;;;;;;;10210520;28;20057;-72
2023/09/01 19:00:58;;;;;;;8.45;6.07;;;;;;;;;;10223011;28;20089;-72
2023/09/01 19:05:59;;;;;;;9.07;6.22;;;;;;;;;;10196542;28;20056;-72
2023/09/01 19:10:58;;;;;;;11.48;6.97;;;;;;;;;;10232097;28;20054;-72
2023/09/01 19:15:59;;;;;;;11.80;7.63;;;;;;;;;;10227814;28;20056;-71
2023/09/01 19:20:56;;;;;;;11.82;8.20;;;;;;;;;;10223156;28;20046;-72
2023/09/01 19:25:53;;;;;;;10.90;6.90;;;;;;;;;;10217170;28;20120;-71
2023/09/01 19:37:18;;;;;;;9.15;6.88;;;;;;;;;;10264233;28;20413;-71
2023/09/01 19:42:39;;;;;;;8.10;6.65;;;;;;;;;;10225604;28;20041;-71
2023/09/01 19:47:35;;;;;;;8.63;6.20;;;;;;;;;;10226792;28;20045;-71
2023/09/01 19:52:32;;;;;;;10.30;6.47;;;;;;;;;;10209581;28;20140;-71
2023/09/01 19:57:37;;;;;;;8.27;5.95;;;;;;;;;;10195981;28;20081;-72
2023/09/01 20:02:35;;;;;;;7.15;6.18;;;;;;;;;;10215987;28;20045;-71
2023/09/01 20:07:36;;;;;;;7.25;6.50;;;;;;;;;;10224992;28;20065;-72
2023/09/01 20:12:34;;;;;;;7.40;6.60;;;;;;;;;;10222556;28;20053;-71
2023/09/01 20:17:30;;;;;;;8.32;6.80;;;;;;;;;;10219113;28;20053;-71
2023/09/01 20:22:27;;;;;;;7.63;6.60;;;;;;;;;;10230983;28;20072;-68
2023/09/01 20:27:23;;;;;;;9.77;7.03;;;;;;;;;;10218425;28;20053;-71
2023/09/01 20:32:23;;;;;;;10.95;7.53;;;;;;;;;;10257246;22;20049;-71
2023/09/01 20:37:19;;;;;;;12.75;7.93;;;;;;;;;;10219455;28;20054;-71
2023/09/01 20:42:16;;;;;;;9.57;7.75;;;;;;;;;;10244962;23;1171837;-71
2023/09/01 20:47:13;;;;;;;11.25;7.88;;;;;;;;;;10280463;28;20118;-70
2023/09/01 20:52:10;;;;;;;10.43;7.20;;;;;;;;;;10268364;28;20076;-71
2023/09/01 20:57:06;;;;;;;10.10;7.13;;;;;;;;;;10298523;28;20040;-72
2023/09/01 21:02:02;;;;;;;7.85;7.05;;;;;;;;;;10281030;28;20078;-72
2023/09/01 21:06:59;;;;;;;10.10;6.80;;;;;;;;;;10286409;28;20041;-71
2023/09/01 21:11:55;;;;;;;11.07;7.45;;;;;;;;;;10307689;28;20056;-70
2023/09/01 21:16:51;;;;;;;15.52;8.63;;;;;;;;;;10288413;28;20059;-70
2023/09/01 21:21:48;;;;;;;10.48;8.30;;;;;;;;;;10295877;28;20103;-70
2023/09/01 21:26:49;;;;;;;15.18;9.00;;;;;;;;;;10299544;28;20056;-71
2023/09/01 21:31:45;;;;;;;9.93;7.18;;;;;;;;;;10296713;28;20172;-71
2023/09/01 21:36:42;;;;;;;10.75;7.80;;;;;;;;;;10299092;28;20057;-71
2023/09/01 21:41:38;;;;;;;11.20;8.10;;;;;;;;;;10305235;28;20041;-71
2023/09/01 21:46:34;;;;;;;10.82;8.45;;;;;;;;;;10300838;28;20053;-72
2023/09/01 21:51:31;;;;;;;15.73;9.05;;;;;;;;;;10289098;28;20045;-72
2023/09/01 21:56:27;;;;;;;12.05;8.75;;;;;;;;;;10298347;28;20443;-71
2023/09/01 22:01:23;;;;;;;12.77;8.50;;;;;;;;;;10287245;28;20467;-71
2023/09/01 22:06:20;;;;;;;9.93;8.40;;;;;;;;;;10284766;28;20519;-72
2023/09/01 22:11:17;;;;;;;10.55;8.57;;;;;;;;;;10294348;28;20057;-71
2023/09/01 22:16:14;;;;;;;13.30;8.40;;;;;;;;;;10305207;28;20479;-72
2023/09/01 22:21:10;;;;;;;13.27;8.70;;;;;;;;;;10293243;28;20068;-72
2023/09/01 22:26:08;;;;;;;9.23;8.18;;;;;;;;;;10303748;28;20056;-72
2023/09/01 22:31:04;;;;;;;10.68;8.60;;;;;;;;;;10291764;28;20044;-70
2023/09/01 22:36:01;;;;;;;9.93;8.18;;;;;;;;;;10310497;28;20048;-70
2023/09/01 22:40:59;;;;;;;11.30;8.90;;;;;;;;;;10302512;28;20067;-70
2023/09/01 22:45:56;;;;;;;10.82;9.02;;;;;;;;;;10301700;28;20103;-70
2023/09/01 22:50:52;;;;;;;10.90;8.57;;;;;;;;;;10307263;28;20052;-70
2023/09/01 22:55:48;;;;;;;9.52;8.25;;;;;;;;;;10303713;28;20071;-71
2023/09/01 23:00:44;;;;;;;13.75;9.60;;;;;;;;;;10309453;28;20106;-70
2023/09/01 23:05:41;;;;;;;10.45;9.15;;;;;;;;;;10305435;28;20520;-70
2023/09/01 23:10:37;;;;;;;11.50;9.18;;;;;;;;;;10307184;28;20496;-72
2023/09/01 23:15:33;;;;;;;9.65;7.78;;;;;;;;;;10298356;28;20135;-70
2023/09/01 23:20:30;;;;;;;9.48;8.30;;;;;;;;;;10287625;28;20041;-71
2023/09/01 23:25:26;;;;;;;10.95;9.18;;;;;;;;;;10301148;28;20115;-70
2023/09/01 23:30:23;;;;;;;9.30;8.38;;;;;;;;;;10308830;28;20573;-70
2023/09/01 23:35:19;;;;;;;9.40;8.50;;;;;;;;;;10308285;28;20518;-70
2023/09/01 23:40:15;;;;;;;10.40;8.20;;;;;;;;;;10297468;28;20064;-72
2023/09/01 23:45:12;;;;;;;9.85;8.90;;;;;;;;;;10305479;28;20056;-71
2023/09/01 23:50:09;;;;;;;9.23;8.32;;;;;;;;;;10314563;23;20890;-71
2023/09/01 23:55:06;;;;;;;12.73;9.60;;;;;;;;;;10269192;28;20049;-71
